createdAt,value
2023-01-19T00:03:05.945Z,8.50
2023-01-19T00:08:14.528Z,8.40
2023-01-19T00:13:23.854Z,8.30
2023-01-19T00:18:32.942Z,8.10
2023-01-19T00:23:42.613Z,7.90
2023-01-19T00:28:51.246Z,7.80
2023-01-19T00:34:00.499Z,7.70
2023-01-19T00:39:08.986Z,7.60
2023-01-19T00:44:18.069Z,7.50
2023-01-19T00:49:26.452Z,7.50
2023-01-19T00:54:35.486Z,7.30
2023-01-19T00:59:44.157Z,7.30
2023-01-19T01:04:56.203Z,7.20
2023-01-19T01:09:54.313Z,7.30
2023-01-19T01:15:03.281Z,7.30
2023-01-19T01:20:12.014Z,7.20
2023-01-19T01:25:21.601Z,7.30
2023-01-19T01:30:30.382Z,7.30
2023-01-19T01:35:39.813Z,7.20
2023-01-19T01:40:48.487Z,7.10
2023-01-19T01:45:57.851Z,7.10
2023-01-19T01:51:06.706Z,7.20
2023-01-19T01:56:15.513Z,7.20
2023-01-19T02:01:23.904Z,7.10
2023-01-19T02:06:32.995Z,7.10
2023-01-19T02:11:41.525Z,7.10
2023-01-19T02:16:50.895Z,7.10
2023-01-19T02:21:59.052Z,7.00
2023-01-19T02:27:07.808Z,6.90
2023-01-19T02:32:16.605Z,6.80
2023-01-19T02:37:25.445Z,6.90
2023-01-19T02:42:33.972Z,7.00
2023-01-19T02:47:42.599Z,7.00
2023-01-19T02:52:51.008Z,7.00
2023-01-19T02:57:59.651Z,7.00
2023-01-19T03:03:07.942Z,7.10
2023-01-19T03:08:16.554Z,7.10
2023-01-19T03:13:24.990Z,7.10
2023-01-19T03:18:34.002Z,7.10
2023-01-19T03:23:42.651Z,7.00
2023-01-19T03:28:51.556Z,7.00
2023-01-19T03:33:59.743Z,6.90
2023-01-19T03:39:08.699Z,6.90
2023-01-19T03:44:17.412Z,6.80
2023-01-19T03:49:26.220Z,6.60
2023-01-19T03:54:34.673Z,6.40
2023-01-19T03:59:43.472Z,6.20
2023-01-19T04:04:51.954Z,6.20
2023-01-19T04:10:00.872Z,6.20
2023-01-19T04:15:09.353Z,6.10
2023-01-19T04:20:18.394Z,6.20
2023-01-19T04:25:26.944Z,6.10
2023-01-19T04:30:35.333Z,6.10
2023-01-19T04:35:43.632Z,5.90
2023-01-19T04:40:52.545Z,5.90
2023-01-19T04:46:00.993Z,5.90
2023-01-19T04:51:10.071Z,5.80
2023-01-19T04:56:18.538Z,5.80
2023-01-19T05:01:27.767Z,5.80
2023-01-19T05:06:36.179Z,5.80
2023-01-19T05:11:44.961Z,5.80
2023-01-19T05:16:53.801Z,5.80
2023-01-19T05:22:02.926Z,5.80
2023-01-19T05:27:11.830Z,5.90
2023-01-19T05:32:21.242Z,5.90
2023-01-19T05:37:29.680Z,5.90
2023-01-19T05:42:38.733Z,5.90
2023-01-19T05:47:47.286Z,5.80
2023-01-19T05:52:55.806Z,5.70
2023-01-19T05:58:04.295Z,5.70
2023-01-19T06:03:12.939Z,5.60
2023-01-19T06:08:21.560Z,5.50
2023-01-19T06:13:29.946Z,5.50
2023-01-19T06:18:38.373Z,5.50
2023-01-19T06:23:47.451Z,5.40
2023-01-19T06:28:56.132Z,5.40
2023-01-19T06:34:05.099Z,5.30
2023-01-19T06:39:13.558Z,5.30
2023-01-19T06:44:22.432Z,5.30
2023-01-19T06:49:30.981Z,5.20
2023-01-19T06:54:40.536Z,5.20
2023-01-19T06:59:49.081Z,5.20
2023-01-19T07:04:57.542Z,5.30
2023-01-19T07:10:05.886Z,5.40
2023-01-19T07:15:14.273Z,5.40
2023-01-19T07:20:22.955Z,5.40
2023-01-19T07:25:32.038Z,5.50
2023-01-19T07:30:40.409Z,5.50
2023-01-19T07:35:48.633Z,5.60
2023-01-19T07:40:57.082Z,5.70
2023-01-19T07:46:05.824Z,5.80
2023-01-19T07:51:14.394Z,5.80
2023-01-19T07:56:22.819Z,5.90
2023-01-19T08:01:31.315Z,6.00
2023-01-19T08:06:40.245Z,6.00
2023-01-19T08:11:49.129Z,6.10
2023-01-19T08:16:57.936Z,6.10
2023-01-19T08:22:06.237Z,6.10
2023-01-19T08:27:15.362Z,6.10
2023-01-19T08:32:23.928Z,6.10
2023-01-19T08:37:34.200Z,6.10
2023-01-19T08:42:40.254Z,6.10
2023-01-19T08:47:49.602Z,6.10
2023-01-19T08:52:58.453Z,6.10
2023-01-19T08:58:07.206Z,6.10
2023-01-19T09:03:15.559Z,6.20
2023-01-19T09:08:24.309Z,6.30
2023-01-19T09:13:32.847Z,6.50
2023-01-19T09:18:41.812Z,6.60
2023-01-19T09:23:50.524Z,6.70
2023-01-19T09:28:59.343Z,6.80
2023-01-19T09:34:07.721Z,6.80
2023-01-19T09:39:16.144Z,6.60
2023-01-19T09:44:24.419Z,6.30
2023-01-19T09:49:33.016Z,6.10
2023-01-19T09:54:41.221Z,5.90
2023-01-19T09:59:50.126Z,5.80
2023-01-19T10:04:58.979Z,5.80
2023-01-19T10:10:07.864Z,5.80
2023-01-19T10:15:16.199Z,5.80
2023-01-19T10:20:25.105Z,5.90
2023-01-19T10:25:33.911Z,6.10
2023-01-19T10:30:42.900Z,6.10
2023-01-19T10:35:50.990Z,6.10
2023-01-19T10:40:59.507Z,6.20
2023-01-19T10:46:07.888Z,6.30
2023-01-19T10:51:16.393Z,6.30
2023-01-19T10:56:24.921Z,6.40
2023-01-19T11:01:33.814Z,6.30
2023-01-19T11:06:45.228Z,6.20
2023-01-19T11:11:43.848Z,6.10
2023-01-19T11:16:52.315Z,6.00
2023-01-19T11:22:01.311Z,6.10
2023-01-19T11:27:09.627Z,6.20
2023-01-19T11:32:18.652Z,6.20
2023-01-19T11:37:27.017Z,6.30
2023-01-19T11:42:35.603Z,6.20
2023-01-19T11:47:44.209Z,6.20
2023-01-19T11:52:52.841Z,6.20
2023-01-19T11:58:01.741Z,6.10
2023-01-19T12:03:10.795Z,6.20
2023-01-19T12:08:19.991Z,6.20
2023-01-19T12:13:29.200Z,6.20
2023-01-19T12:18:37.571Z,6.10
2023-01-19T12:23:46.545Z,6.10
2023-01-19T12:28:54.844Z,6.00
2023-01-19T12:34:03.945Z,5.90
2023-01-19T12:39:12.834Z,5.90
2023-01-19T12:44:22.014Z,5.80
2023-01-19T12:49:30.356Z,5.80
2023-01-19T12:54:38.826Z,5.70
2023-01-19T12:59:47.704Z,5.50
2023-01-19T13:04:56.220Z,5.40
2023-01-19T13:10:04.681Z,5.40
2023-01-19T13:15:13.463Z,5.40
2023-01-19T13:20:22.285Z,5.40
2023-01-19T13:25:31.628Z,5.30
2023-01-19T13:30:40.446Z,5.20
2023-01-19T13:35:49.155Z,5.20
2023-01-19T13:40:57.352Z,5.20
2023-01-19T13:46:05.964Z,5.00
2023-01-19T13:51:14.415Z,4.90
2023-01-19T13:56:23.503Z,4.90
2023-01-19T14:01:32.048Z,4.80
2023-01-19T14:06:40.110Z,4.80
2023-01-19T14:11:48.889Z,4.80
2023-01-19T14:16:57.927Z,4.90
2023-01-19T14:22:06.599Z,4.80
2023-01-19T14:27:15.583Z,4.80
2023-01-19T14:32:24.093Z,4.80
2023-01-19T14:37:32.991Z,4.70
2023-01-19T14:42:41.699Z,4.70
2023-01-19T14:47:50.583Z,4.70
2023-01-19T14:52:59.260Z,4.70
2023-01-19T14:58:07.868Z,4.70
2023-01-19T15:03:16.952Z,4.70
2023-01-19T15:08:25.827Z,4.70
2023-01-19T15:13:34.331Z,4.70
2023-01-19T15:18:43.185Z,4.70
2023-01-19T15:23:51.791Z,4.70
2023-01-19T15:29:00.547Z,4.70
2023-01-19T15:34:09.169Z,4.60
2023-01-19T15:39:18.362Z,4.60
2023-01-19T15:44:26.603Z,4.60
2023-01-19T15:49:36.066Z,4.60
2023-01-19T15:54:44.888Z,4.60
2023-01-19T15:59:53.797Z,4.70
2023-01-19T16:05:02.585Z,4.70
2023-01-19T16:10:12.445Z,4.80
2023-01-19T16:15:21.018Z,4.90
2023-01-19T16:20:30.471Z,4.90
2023-01-19T16:25:39.126Z,4.90
2023-01-19T16:30:48.187Z,5.00
2023-01-19T16:35:56.523Z,5.00
2023-01-19T16:41:05.623Z,5.20
2023-01-19T16:46:14.327Z,5.20
2023-01-19T16:51:23.824Z,5.40
2023-01-19T16:56:32.733Z,5.40
2023-01-19T17:01:41.801Z,5.50
2023-01-19T17:06:49.871Z,5.60
2023-01-19T17:11:58.350Z,5.70
2023-01-19T17:17:06.658Z,5.80
2023-01-19T17:22:15.740Z,5.80
2023-01-19T17:27:24.349Z,5.90
2023-01-19T17:32:33.695Z,6.00
2023-01-19T17:37:42.286Z,6.10
2023-01-19T17:42:51.148Z,6.10
2023-01-19T17:48:00.082Z,6.10
2023-01-19T17:53:09.915Z,6.10
2023-01-19T17:58:19.571Z,6.20
2023-01-19T18:03:28.916Z,6.30
2023-01-19T18:08:39.173Z,6.30
2023-01-19T18:13:38.369Z,6.40
2023-01-19T18:18:47.011Z,6.40
2023-01-19T18:23:56.434Z,6.50
2023-01-19T18:29:05.597Z,6.60
2023-01-19T18:34:15.040Z,6.60
2023-01-19T18:39:24.029Z,6.60
2023-01-19T18:44:33.050Z,6.70
2023-01-19T18:49:41.902Z,6.70
2023-01-19T18:54:50.524Z,6.80
2023-01-19T18:59:59.647Z,6.90
2023-01-19T19:05:08.818Z,6.90
2023-01-19T19:10:17.261Z,6.90
2023-01-19T19:15:26.684Z,6.90
2023-01-19T19:20:35.707Z,7.00
2023-01-19T19:25:44.906Z,7.00
2023-01-19T19:30:53.813Z,7.10
2023-01-19T19:36:03.665Z,7.10
2023-01-19T19:41:11.995Z,7.10
2023-01-19T19:46:20.504Z,7.20
2023-01-19T19:51:29.437Z,7.20
2023-01-19T19:56:38.127Z,7.30
2023-01-19T20:01:46.697Z,7.30
2023-01-19T20:06:56.682Z,7.40
2023-01-19T20:11:55.482Z,7.40
2023-01-19T20:17:06.096Z,7.40
2023-01-19T20:22:05.272Z,7.40
2023-01-19T20:27:14.436Z,7.40
2023-01-19T20:32:23.294Z,7.50
2023-01-19T20:37:32.354Z,7.60
2023-01-19T20:42:40.671Z,7.60
2023-01-19T20:47:49.881Z,7.60
2023-01-19T20:52:58.376Z,7.70
2023-01-19T20:58:07.307Z,7.70
2023-01-19T21:03:16.136Z,7.70
2023-01-19T21:08:25.155Z,7.80
2023-01-19T21:13:33.622Z,7.80
2023-01-19T21:18:42.319Z,7.80
2023-01-19T21:23:50.825Z,7.80
2023-01-19T21:28:59.973Z,7.80
2023-01-19T21:34:08.535Z,7.80
2023-01-19T21:39:17.499Z,7.90
2023-01-19T21:44:25.712Z,7.90
2023-01-19T21:49:34.750Z,8.00
2023-01-19T21:54:43.414Z,8.00
2023-01-19T21:59:51.962Z,8.00
2023-01-19T22:05:00.444Z,8.10
2023-01-19T22:10:09.745Z,8.10
2023-01-19T22:15:18.241Z,8.20
2023-01-19T22:20:26.925Z,8.20
2023-01-19T22:25:35.491Z,8.20
2023-01-19T22:30:44.721Z,8.30
2023-01-19T22:35:53.241Z,8.20
2023-01-19T22:41:02.132Z,8.20
2023-01-19T22:46:10.615Z,8.30
2023-01-19T22:51:19.187Z,8.20
2023-01-19T22:56:27.757Z,8.20
2023-01-19T23:01:37.415Z,8.20
2023-01-19T23:06:46.036Z,8.20
2023-01-19T23:11:55.312Z,8.30
2023-01-19T23:17:03.855Z,8.30
2023-01-19T23:22:12.847Z,8.30
2023-01-19T23:27:21.509Z,8.30
2023-01-19T23:32:30.434Z,8.40
2023-01-19T23:37:39.219Z,8.50
2023-01-19T23:42:47.934Z,8.50
2023-01-19T23:47:56.189Z,8.60
2023-01-19T23:53:05.320Z,8.60
2023-01-19T23:58:13.925Z,8.60
